Nearby METAR Reports

 

CWGT - Sisters Island (Auto)
Distance from station: NE 39km
Updated: 2018-12-11 05:00

 Wind from ESE
Wind: ESE 69 km/h, Gust: 80 km/h
Temperature: 8°C
Wind Chill: 2°C
Dew Point: 7°C
Humidity: 93%
2018/12/11 13:00 CWGT 111300Z AUTO 11037G43KT 08/07 RMK AO1 PK WND 10048/1215 SLP059 T00800069 56052
CWGB - Ballenas Island (Auto)
Distance from station: ENE 47km
Updated: 2018-12-11 05:00

 Wind from ESE
Wind: ESE 57 km/h
Temperature: 8°C
Wind Chill: 2°C
Dew Point: 6°C
Humidity: 87%
2018/12/11 13:00 CWGB 111300Z AUTO 12031KT 08/06 RMK AO1 2PAST HR 6045 PK WND 12036/1247 SLP084 P0001 T00810055 50002
CYQQ - CFB Comox
Distance from station: N 55km
Updated: 2018-12-11 05:00
Light rain, Mist, Overcast
Light rain, Mist, Overcast
 Wind from SE
Wind: SE 46 km/h, Gust: 61 km/h
Temperature: 7°C
Wind Chill: 2°C
Dew Point: 7°C
Humidity: 100%
Barometer: 1007.1 hPa
Summary: Light rain, Mist
Clouds: Overcast
Visibility: 6 km
Cloud details: Mostly cloudy 305 m
Overcast 610 m
2018/12/11 13:00 CYQQ 111300Z 14025G33KT 4SM -RA BR BKN010 OVC020 07/07 A2974 RMK SF7SC1 SLP072
 
CYPW - Powell River Airport
Distance from station: NNE 69km
Updated: 2018-12-10 19:00
NOT Current
Overcast
Overcast
 Wind from E
Wind: E 17 km/h, Gust: 28 km/h
Temperature: 6°C
Wind Chill: 3°C
Dew Point: 3°C
Humidity: 81%
Barometer: 1019 hPa
Clouds: Overcast
Visibility: 16 km
Cloud details: Mostly cloudy 1615 m
Overcast 1890 m
2018/12/11 03:00 CYPW 110300Z 09009G15KT 10SM BKN053 OVC062 06/03 A3009 RMK SC6SC2 LAST STFD OBS NEXT OBS 111500 UTC SLP195
CYCD - Nanaimo Airport
Distance from station: ESE 70km
Updated: 2018-12-10 21:00
NOT Current
Overcast
Overcast
 Wind from SE
Wind: SE 22 km/h, Gust: 39 km/h
Temperature: 7°C
Wind Chill: 4°C
Dew Point: 5°C
Humidity: 87%
Barometer: 1019 hPa
Clouds: Overcast
Visibility: 32 km
Cloud details: Partly cloudy 1524 m
Overcast 2438 m
2018/12/11 05:00 CYCD 110500Z 14012G21KT 20SM SCT050 OVC080 07/05 A3009 RMK SC4AC4 LAST STFD OBS/NEXT 111400Z SLP193
CYAZ - Tofino Airport
Distance from station: WSW 73km
Updated: 2018-12-10 17:00
NOT Current
Overcast
Overcast
 Wind from E
Wind: E 13 km/h
Temperature: 7°C
Wind Chill: 5°C
Dew Point: 6°C
Humidity: 93%
Barometer: 1019.3 hPa
Clouds: Overcast
Visibility: 16 km
Cloud details: Mostly cloudy 914 m
Overcast 2073 m
2018/12/11 01:00 CYAZ 110100Z 09007KT 10SM BKN030 OVC068 07/06 A3010 RMK SC5AC3 LAST STFD OBS/NEXT 111500UTC SLP194
 
CWEL - Entrance Island (Auto)
Distance from station: E 73km
Updated: 2018-12-11 05:00

 Wind from SSE
Wind: SSE 41 km/h, Gust: 50 km/h
Temperature: 8°C
Wind Chill: 3°C
Dew Point: 7°C
Humidity: 93%
2018/12/11 13:00 CWEL 111300Z AUTO 16022G27KT 08/07 RMK AO1 PK WND 16030/1217 SLP092 T00820066 58040
CYBL - Campbell River Airport
Distance from station: NNW 88km
Updated: 2018-12-10 21:00
NOT Current
Light rain, Overcast
Light rain, Overcast
 Wind from SSE
Wind: SSE 15 km/h
Temperature: 5°C
Wind Chill: 2°C
Dew Point: 4°C
Humidity: 93%
Barometer: 1015.9 hPa
Summary: Light rain
Clouds: Overcast
Visibility: 16 km
Cloud details: Mostly cloudy 518 m
Overcast 975 m
2018/12/11 05:00 CYBL 110500Z 15008KT 10SM -RA BKN017 OVC032 05/04 A3000 RMK SC6SC2 LAST STFD OBS/NEXT 111400UTC SLP166
CWKH - Malahat Highway (Auto)
Distance from station: SE 116km
Updated: 2018-12-11 05:00

 
Temperature: 4°C
Dew Point: 4°C
Humidity: 100%
2018/12/11 13:00 CWKH 111300Z AUTO 04/04 RMK AO1 2PAST HR 6041 SLP088 P0001 T00420040 50002
 
CYVR - Vancouver Intl Airport
Distance from station: E 118km
Updated: 2018-12-11 05:00
Light rain, Mist, Overcast
Light rain, Mist, Overcast
 Wind from ESE
Wind: ESE 37 km/h, Gust: 54 km/h
Temperature: 7°C
Wind Chill: 2°C
Dew Point: 6°C
Humidity: 93%
Barometer: 1011.9 hPa
Summary: Light rain, Mist
Clouds: Overcast
Visibility: 10 km
Cloud details: Few Clouds 457 m
Mostly cloudy 610 m
Overcast 762 m
2018/12/11 13:00 CYVR 111300Z 11020G29KT 6SM -RA BR FEW015 BKN020 OVC025 07/06 A2988 RMK SF2SC5SC1 SLP121
CYYJ - Victoria Intl Airport
Distance from station: ESE 120km
Updated: 2018-12-11 05:00
Light rain, Overcast
Light rain, Overcast
 Wind from SSE
Wind: SSE 26 km/h, Gust: 37 km/h
Temperature: 7°C
Wind Chill: 3°C
Dew Point: 6°C
Humidity: 93%
Barometer: 1010.2 hPa
Summary: Light rain
Clouds: Overcast
Visibility: 19 km
Cloud details: Few Clouds 213 m
Few Clouds 457 m
Overcast 1311 m
2018/12/11 13:00 CYYJ 111300Z 15014G20KT 12SM -RA FEW007 FEW015 OVC043 07/06 A2983 RMK SF1SC2SC6 SF TR SLP102
CWEB - Estevan Pt. (Auto)
Distance from station: W 129km
Updated: 2018-12-11 05:00

 Wind from SE
Wind: SE 20 km/h, Gust: 31 km/h
Temperature: 10°C
Wind Chill: 7°C
Dew Point: 10°C
Humidity: 100%
2018/12/11 13:00 CWEB 111300Z AUTO 13011G17KT 10/10 RMK AO1 6PAST HR 7030 PK WND 13022/1211 SLP030 P0045 T00980096 50116
 
CWQK - Race Rocks (Auto)
Distance from station: SE 138km
Updated: 2018-12-11 05:00

 Wind from N
Wind: N 33 km/h
Temperature: 7°C
Wind Chill: 3°C
Dew Point: 5°C
Humidity: 87%
2018/12/11 13:00 CWQK 111300Z AUTO 36018KT 07/05 RMK AO1 PK WND 00021/1221 SLP092 T00710052 57045
CWAE - Whistler
Distance from station: NE 167km
Updated: 2018-12-10 17:00
NOT Current
Overcast
Overcast
 Wind from S
Wind: S 9 km/h
Temperature: 2°C
Wind Chill: -1°C
Dew Point: 2°C
Humidity: 100%
Barometer: 1019.6 hPa
Clouds: Overcast
Visibility: 24 km
Cloud details: Overcast 488 m
2018/12/11 01:00 CWAE 110100Z 18005KT 15SM OVC016 02/02 A3011 RMK SC8 LAST OBS/NEXT111500UTC WND ESTD SLP218
CYZT - Port Hardy Airport
Distance from station: NW 244km
Updated: 2018-12-11 05:00
Rain, Overcast
Rain, Overcast
 Wind from ESE
Wind: ESE 35 km/h, Gust: 52 km/h
Temperature: 6°C
Wind Chill: 1°C
Dew Point: 5°C
Humidity: 93%
Barometer: 998.3 hPa
Summary: Rain
Clouds: Overcast
Visibility: 24 km
Cloud details: Partly cloudy 610 m
Overcast 1219 m
2018/12/11 13:00 CYZT 111300Z 11019G28KT 15SM RA SCT020 OVC040 06/05 A2948 RMK SC3SC5 SLP985
 
CWRU - Solander Isl (Auto)
Distance from station: WNW 247km
Updated: 2018-12-11 05:00

 Wind from SSW
Wind: SSW 43 km/h
Temperature: 11°C
Dew Point: 11°C
Humidity: 100%
2018/12/11 13:00 CWRU 111300Z AUTO 21023KT 11/11 RMK AO1 0PAST HR 8001 PK WND 20027/1231 SLP978 P0004 T01070106 50010